Time;durP1;ratioP1;P1;durP2;ratioP2;P2;SDS_P1;SDS_P2;PMS_P1;PMS_P2;Temp;Humidity;BMP_temperature;BMP_pressure;BME280_temperature;BME280_humidity;BME280_pressure;Samples;Min_cycle;Max_cycle;Signal;HPM_P1;HPM_P2
2023/10/18 00:01:57;;;;;;;;;9.00;9.00;;;;;14.03;60.90;100066.84;5098736;27;45784;-76
2023/10/18 00:04:23;;;;;;;;;9.00;9.00;;;;;14.03;60.60;100061.50;5080317;27;45527;-76
2023/10/18 00:06:49;;;;;;;;;10.33;10.33;;;;;14.04;60.85;100063.16;5098986;27;45252;-76
2023/10/18 00:09:38;;;;;;;;;9.67;8.33;;;;;13.99;60.39;100052.16;5098910;27;45659;-75
2023/10/18 00:12:07;;;;;;;;;9.00;8.67;;;;;14.05;60.75;100055.97;5098385;27;46629;-76
2023/10/18 00:14:32;;;;;;;;;10.00;9.00;;;;;13.86;60.20;100041.28;5079754;27;45356;-75
2023/10/18 00:16:59;;;;;;;;;10.00;8.67;;;;;13.82;60.80;100023.97;5080212;27;45729;-76
2023/10/18 00:19:26;;;;;;;;;10.67;8.67;;;;;13.98;60.76;100039.81;5097536;27;45577;-76
2023/10/18 00:21:52;;;;;;;;;8.00;7.00;;;;;13.99;60.57;100041.47;5119021;27;46201;-77
2023/10/18 00:24:18;;;;;;;;;8.67;8.67;;;;;13.81;60.85;100028.44;5119147;27;45578;-78
2023/10/18 00:26:43;;;;;;;;;10.00;8.00;;;;;13.98;60.47;100045.97;5119176;27;45207;-75
2023/10/18 00:29:09;;;;;;;;;7.67;7.00;;;;;13.97;60.60;100048.84;5119319;27;45368;-75
2023/10/18 00:31:34;;;;;;;;;9.00;7.67;;;;;13.80;60.75;100017.94;5101252;27;47709;-76
2023/10/18 00:33:59;;;;;;;;;8.00;8.00;;;;;13.60;60.65;99982.91;5121757;27;45700;-76
2023/10/18 00:36:25;;;;;;;;;9.33;7.67;;;;;13.85;60.78;100026.25;5100814;27;45319;-76
2023/10/18 00:38:53;;;;;;;;;8.00;8.00;;;;;13.85;60.95;100021.75;5100349;27;45339;-77
2023/10/18 00:41:32;;;;;;;;;7.00;7.00;;;;;13.80;60.82;100010.75;5118419;27;46894;-76
2023/10/18 00:43:58;;;;;;;;;9.67;9.00;;;;;13.95;60.46;100024.13;5118866;27;45222;-77
2023/10/18 00:46:24;;;;;;;;;8.00;7.00;;;;;13.98;60.69;100029.13;5100653;27;45343;-77
2023/10/18 00:48:50;;;;;;;;;8.33;6.33;;;;;13.85;60.18;100000.38;5100125;27;45661;-77
2023/10/18 00:51:17;;;;;;;;;7.67;7.67;;;;;13.94;60.79;100011.78;5119425;27;46824;-76
2023/10/18 00:53:45;;;;;;;;;7.00;7.00;;;;;13.83;60.43;99994.38;5122476;27;45411;-77
2023/10/18 00:56:15;;;;;;;;;8.00;7.00;;;;;13.92;60.22;100003.13;5120624;27;45242;-75
2023/10/18 00:58:42;;;;;;;;;8.67;6.00;;;;;13.86;60.40;99987.84;5100455;27;45347;-76
2023/10/18 01:01:11;;;;;;;;;9.33;8.00;;;;;13.97;60.03;100008.75;5118458;27;45617;-76
2023/10/18 01:03:38;;;;;;;;;12.00;9.00;;;;;13.88;60.35;99985.81;5118557;27;45539;-75
2023/10/18 01:06:20;;;;;;;;;8.00;8.00;;;;;13.90;60.10;99984.63;5118901;27;45480;-76
2023/10/18 01:08:49;;;;;;;;;11.33;10.33;;;;;13.87;60.30;99978.81;5119625;27;45548;-76
2023/10/18 01:11:18;;;;;;;;;8.00;8.00;;;;;13.91;60.41;99990.78;5100374;27;48751;-75
2023/10/18 01:13:45;;;;;;;;;7.00;7.00;;;;;13.80;60.57;99972.53;5118824;27;45520;-77
2023/10/18 01:16:14;;;;;;;;;10.00;10.00;;;;;13.79;60.59;99965.53;5122026;27;45223;-76
2023/10/18 01:18:44;;;;;;;;;9.00;9.00;;;;;13.57;60.55;99930.69;5096319;27;45548;-75
2023/10/18 01:21:14;;;;;;;;;7.00;6.00;;;;;13.75;60.55;99962.41;5097955;27;46877;-76
2023/10/18 01:23:50;;;;;;;;;9.33;9.00;;;;;13.78;60.24;99955.84;5097506;27;45452;-77
2023/10/18 01:26:21;;;;;;;;;8.00;7.00;;;;;13.86;59.93;99971.81;5097725;27;45331;-77
2023/10/18 01:28:47;;;;;;;;;7.00;6.00;;;;;13.81;60.26;99948.28;5097846;27;45510;-78
2023/10/18 01:31:13;;;;;;;;;6.33;6.33;;;;;13.88;60.35;99954.56;5079117;27;47894;-77
2023/10/18 01:33:43;;;;;;;;;11.00;8.00;;;;;13.89;59.95;99942.06;5082915;27;45345;-75
2023/10/18 01:36:12;;;;;;;;;7.67;7.00;;;;;13.83;60.43;99929.44;5101859;27;45486;-76
2023/10/18 01:38:39;;;;;;;;;9.33;8.00;;;;;13.80;60.23;99935.13;5103478;27;45275;-76
2023/10/18 01:41:25;;;;;;;;;8.00;7.00;;;;;13.74;60.31;99925.19;5101948;27;45734;-77
2023/10/18 01:43:55;;;;;;;;;8.00;8.00;;;;;13.34;60.26;99850.69;5082752;27;45451;-78
2023/10/18 01:46:22;;;;;;;;;9.33;8.00;;;;;13.80;60.13;99913.75;5101567;27;45509;-77
2023/10/18 01:48:51;;;;;;;;;10.33;9.67;;;;;13.85;59.76;99930.91;5101271;27;45493;-76
2023/10/18 01:51:17;;;;;;;;;9.67;9.00;;;;;13.80;60.20;99925.25;5100826;27;46701;-77
2023/10/18 01:53:43;;;;;;;;;8.67;8.67;;;;;13.78;60.53;99915.78;5101022;27;45476;-75
2023/10/18 01:56:13;;;;;;;;;7.33;7.33;;;;;13.62;60.20;99893.59;5082448;27;45312;-77
2023/10/18 01:58:39;;;;;;;;;8.00;8.00;;;;;13.74;60.73;99915.31;5083074;27;45346;-76
2023/10/18 02:01:08;;;;;;;;;8.00;7.00;;;;;13.39;60.61;99852.78;5103345;27;54576;-75
2023/10/18 02:03:34;;;;;;;;;7.33;7.33;;;;;13.75;60.27;99914.31;5100933;27;45328;-78
2023/10/18 02:06:05;;;;;;;;;10.00;7.67;;;;;13.76;60.45;99904.44;5101111;27;45293;-76
2023/10/18 02:08:30;;;;;;;;;8.00;8.00;;;;;13.77;60.49;99914.94;5101350;27;45532;-77
2023/10/18 02:10:56;;;;;;;;;8.00;6.00;;;;;13.77;60.65;99912.28;5121222;27;46453;-77
2023/10/18 02:13:21;;;;;;;;;9.00;8.00;;;;;13.73;60.21;99896.81;5102884;27;45426;-76
2023/10/18 02:15:48;;;;;;;;;10.00;6.33;;;;;13.59;60.13;99869.09;5102845;27;45362;-77
2023/10/18 02:18:14;;;;;;;;;6.00;6.00;;;;;13.76;60.00;99889.25;5103176;27;45311;-74
2023/10/18 02:20:50;;;;;;;;;8.67;8.00;;;;;13.70;60.55;99882.81;5121801;27;45620;-76
2023/10/18 02:23:15;;;;;;;;;8.00;7.00;;;;;13.77;60.91;99888.25;5121493;27;45235;-77
2023/10/18 02:28:09;;;;;;;;;6.00;5.00;;;;;13.75;59.46;99862.72;5121404;27;45314;-76
2023/10/18 02:30:37;;;;;;;;;7.00;7.00;;;;;13.76;60.60;99865.22;5121026;27;45622;-75
2023/10/18 02:33:04;;;;;;;;;7.00;5.33;;;;;13.62;60.28;99836.69;5120726;27;45426;-76
2023/10/18 02:35:30;;;;;;;;;12.00;8.00;;;;;13.56;60.06;99818.72;5120928;27;45334;-76
2023/10/18 02:37:55;;;;;;;;;7.00;7.00;;;;;13.63;60.26;99831.16;5121049;27;45521;-77
2023/10/18 02:40:29;;;;;;;;;9.33;9.33;;;;;13.64;60.04;99837.34;5103627;27;46166;-77
2023/10/18 02:42:57;;;;;;;;;9.33;6.67;;;;;13.40;60.34;99777.03;5101697;27;45338;-77
2023/10/18 02:45:22;;;;;;;;;10.00;7.33;;;;;13.72;60.20;99831.06;5103317;27;45269;-76
2023/10/18 02:47:51;;;;;;;;;8.00;8.00;;;;;13.71;60.41;99830.22;5100407;27;45380;-75
2023/10/18 02:50:20;;;;;;;;;6.33;6.00;;;;;13.72;59.85;99825.72;5100194;27;46673;-75
2023/10/18 02:52:48;;;;;;;;;7.00;7.00;;;;;13.55;60.25;99807.22;5099944;27;45467;-78
2023/10/18 02:55:19;;;;;;;;;10.00;6.67;;;;;13.35;60.34;99769.56;5081469;27;45349;-74
2023/10/18 02:57:48;;;;;;;;;9.00;8.33;;;;;13.55;60.45;99804.53;5100397;27;45482;-76
2023/10/18 03:00:17;;;;;;;;;8.33;8.33;;;;;13.50;60.35;99780.25;5099806;27;46208;-77
2023/10/18 03:02:42;;;;;;;;;7.00;7.00;;;;;13.30;60.07;99747.13;5099942;27;45552;-76
2023/10/18 03:05:08;;;;;;;;;7.67;7.67;;;;;13.69;60.41;99811.72;5103301;27;45409;-76
2023/10/18 03:07:36;;;;;;;;;8.67;8.67;;;;;13.63;60.27;99793.78;5102287;27;45510;-77
2023/10/18 03:10:11;;;;;;;;;7.00;7.00;;;;;13.70;60.08;99792.00;5096684;27;48167;-75
2023/10/18 03:12:44;;;;;;;;;6.67;5.67;;;;;13.67;60.29;99787.03;5120376;27;45616;-76
2023/10/18 03:15:12;;;;;;;;;7.00;7.00;;;;;13.65;60.26;99783.72;5101886;27;45546;-75
2023/10/18 03:17:37;;;;;;;;;7.00;7.00;;;;;13.53;60.72;99763.84;5120451;27;45444;-77
2023/10/18 03:22:49;;;;;;;;;8.00;7.00;;;;;13.48;60.58;99739.56;5120557;27;45426;-76
2023/10/18 03:25:16;;;;;;;;;9.33;9.33;;;;;13.54;60.92;99765.50;5120159;27;45195;-76
2023/10/18 03:27:49;;;;;;;;;6.33;6.00;;;;;13.53;60.67;99769.19;5103272;27;45359;-77
2023/10/18 03:30:18;;;;;;;;;9.33;8.33;;;;;13.24;60.81;99723.84;5120930;27;45748;-75
2023/10/18 03:32:44;;;;;;;;;5.33;4.33;;;;;13.37;60.71;99737.34;5120686;27;45497;-76
2023/10/18 03:35:09;;;;;;;;;7.00;6.00;;;;;13.71;60.89;99782.13;5120265;27;45478;-76
2023/10/18 03:37:39;;;;;;;;;8.00;8.00;;;;;13.68;60.41;99778.00;5119853;27;45521;-76
2023/10/18 03:40:17;;;;;;;;;9.00;9.00;;;;;13.77;60.54;99793.91;5103433;27;46985;-76
2023/10/18 03:42:45;;;;;;;;;6.00;6.00;;;;;13.73;60.36;99790.78;5099046;27;45374;-76
2023/10/18 03:45:11;;;;;;;;;9.67;7.67;;;;;13.75;60.19;99785.25;5099163;27;45821;-76
2023/10/18 03:47:36;;;;;;;;;6.33;5.33;;;;;13.72;60.61;99780.28;5081056;27;45163;-76
2023/10/18 03:50:06;;;;;;;;;6.33;6.00;;;;;13.80;60.30;99793.53;5100530;27;46431;-75
2023/10/18 03:52:33;;;;;;;;;9.33;8.33;;;;;13.68;60.19;99771.84;5098829;27;45379;-75
2023/10/18 03:55:05;;;;;;;;;11.33;8.00;;;;;13.84;60.28;99782.31;5099208;27;45656;-77
2023/10/18 03:57:41;;;;;;;;;7.67;7.00;;;;;13.91;60.41;99796.56;5099281;27;45501;-76
2023/10/18 04:02:48;;;;;;;;;10.67;9.33;;;;;13.91;60.67;99785.03;5098740;27;45301;-77
2023/10/18 04:05:30;;;;;;;;;7.00;7.00;;;;;13.90;60.63;99770.84;5099015;27;45552;-76
2023/10/18 04:07:55;;;;;;;;;4.67;4.67;;;;;13.72;60.51;99726.88;5099234;27;46786;-76
2023/10/18 04:10:24;;;;;;;;;9.00;7.67;;;;;13.88;60.50;99759.53;5099750;27;48312;-76
2023/10/18 04:12:50;;;;;;;;;12.33;9.00;;;;;13.91;60.59;99752.97;5080897;27;45430;-78
2023/10/18 04:15:29;;;;;;;;;8.00;7.33;;;;;13.94;60.52;99741.91;5112354;27;45541;-76
2023/10/18 04:20:35;;;;;;;;;6.67;6.67;;;;;13.90;60.84;99721.94;5116828;27;45619;-76
2023/10/18 04:23:21;;;;;;;;;9.00;8.00;;;;;13.79;61.20;99707.22;5118385;27;45593;-76
2023/10/18 04:26:01;;;;;;;;;7.00;6.67;;;;;14.03;61.41;99746.13;5098309;27;45489;-75
2023/10/18 04:28:30;;;;;;;;;8.67;7.00;;;;;14.07;61.86;99743.88;5119267;27;45576;-78
2023/10/18 04:31:03;;;;;;;;;8.00;8.00;;;;;13.91;62.28;99726.25;5120416;27;46975;-77
2023/10/18 04:33:41;;;;;;;;;11.33;9.00;;;;;14.04;62.17;99744.28;5122127;27;45280;-76
2023/10/18 04:36:11;;;;;;;;;9.00;7.33;;;;;13.92;62.44;99709.19;5119492;27;45311;-75
2023/10/18 04:38:44;;;;;;;;;8.00;8.00;;;;;13.70;62.71;99669.13;5112511;27;45335;-76
2023/10/18 04:41:31;;;;;;;;;7.67;7.67;;;;;13.96;63.10;99724.66;5096764;27;46569;-75
2023/10/18 04:46:29;;;;;;;;;8.00;8.00;;;;;13.93;63.42;99708.19;5098160;27;45351;-76
2023/10/18 04:51:28;;;;;;;;;7.67;7.67;;;;;13.88;63.81;99703.41;5098105;27;46565;-76
2023/10/18 04:54:03;;;;;;;;;9.00;8.00;;;;;13.61;64.44;99648.88;5099049;27;45482;-76
2023/10/18 04:56:33;;;;;;;;;8.67;8.67;;;;;13.64;64.67;99669.91;5081076;27;45398;-76
2023/10/18 04:59:10;;;;;;;;;9.33;9.33;;;;;13.80;64.30;99695.50;5080106;27;45253;-76
2023/10/18 05:01:36;;;;;;;;;8.67;7.67;;;;;13.77;64.43;99690.56;5097741;27;45715;-76
2023/10/18 05:04:20;;;;;;;;;7.67;7.00;;;;;13.65;64.55;99666.22;5097752;27;45442;-75
2023/10/18 05:06:53;;;;;;;;;9.67;9.67;;;;;13.72;64.94;99676.94;5096340;27;45440;-75
2023/10/18 05:09:31;;;;;;;;;8.00;8.00;;;;;13.64;64.85;99663.72;5113157;27;45165;-76
2023/10/18 05:12:10;;;;;;;;;8.33;8.00;;;;;13.72;65.13;99663.59;5117996;27;46254;-76
2023/10/18 05:14:35;;;;;;;;;8.00;8.00;;;;;13.88;64.90;99675.88;5097781;27;45331;-77
2023/10/18 05:17:07;;;;;;;;;9.00;9.00;;;;;13.89;65.20;99677.53;5099659;27;45348;-75
2023/10/18 05:19:37;;;;;;;;;10.00;8.33;;;;;13.86;65.24;99680.59;5098446;27;45411;-75
2023/10/18 05:22:04;;;;;;;;;10.00;8.33;;;;;13.87;65.04;99668.88;5097060;27;45749;-76
2023/10/18 05:24:36;;;;;;;;;11.67;9.67;;;;;13.74;64.92;99642.84;5079383;27;46153;-76
2023/10/18 05:27:05;;;;;;;;;10.00;9.00;;;;;13.63;65.39;99635.38;5099672;27;45236;-76
2023/10/18 05:29:42;;;;;;;;;10.67;10.67;;;;;13.74;65.72;99658.06;5098671;27;45564;-76
2023/10/18 05:32:27;;;;;;;;;6.67;6.67;;;;;13.59;66.51;99628.72;5099594;27;46194;-76
2023/10/18 05:34:56;;;;;;;;;9.67;9.67;;;;;13.70;66.12;99657.63;5092953;27;45473;-78
2023/10/18 05:37:32;;;;;;;;;9.00;9.00;;;;;13.45;65.98;99614.44;5098842;27;45221;-77
2023/10/18 05:42:46;;;;;;;;;9.33;7.67;;;;;13.56;65.88;99624.59;5102708;27;45892;-77
2023/10/18 05:45:14;;;;;;;;;9.00;8.33;;;;;13.73;66.77;99646.53;5085438;27;45604;-77
2023/10/18 05:47:42;;;;;;;;;12.00;9.00;;;;;13.69;66.76;99639.94;5113099;27;45499;-77
2023/10/18 05:50:12;;;;;;;;;10.33;9.00;;;;;13.77;66.56;99657.66;5099437;27;45258;-77
2023/10/18 05:52:37;;;;;;;;;9.00;8.00;;;;;13.69;66.47;99640.75;5114423;27;45503;-77
2023/10/18 05:55:08;;;;;;;;;7.33;7.33;;;;;13.77;66.11;99646.97;5105635;27;45470;-77
2023/10/18 05:57:34;;;;;;;;;6.00;6.00;;;;;13.49;66.39;99590.84;5093947;27;45304;-79
2023/10/18 05:59:59;;;;;;;;;8.00;8.00;;;;;13.60;66.04;99604.50;5098318;27;45219;-79
2023/10/18 06:02:25;;;;;;;;;11.67;8.00;;;;;13.82;66.14;99644.59;5079192;27;45522;-75
2023/10/18 06:04:51;;;;;;;;;11.33;10.33;;;;;13.79;66.15;99624.41;5109526;27;45706;-76
2023/10/18 06:07:22;;;;;;;;;10.00;9.33;;;;;13.81;66.03;99633.03;5115992;27;45498;-76
2023/10/18 06:09:54;;;;;;;;;10.00;9.00;;;;;13.77;65.84;99626.44;5099071;27;45251;-76
2023/10/18 06:12:24;;;;;;;;;9.33;8.33;;;;;12.99;66.14;99497.31;5117261;27;45709;-78
2023/10/18 06:14:53;;;;;;;;;10.67;9.67;;;;;13.96;65.99;99652.50;5098541;27;45786;-77
2023/10/18 06:17:22;;;;;;;;;11.33;10.00;;;;;13.58;65.98;99585.19;5098820;27;45331;-74
2023/10/18 06:19:50;;;;;;;;;16.33;11.00;;;;;13.82;66.49;99617.88;5118927;27;45496;-76
2023/10/18 06:22:27;;;;;;;;;10.00;9.00;;;;;14.11;66.11;99655.09;5111021;27;46598;-76
2023/10/18 06:24:53;;;;;;;;;9.67;9.00;;;;;14.14;65.89;99652.03;5100889;27;45431;-76
2023/10/18 06:27:18;;;;;;;;;12.00;10.67;;;;;14.14;65.84;99649.38;5092260;27;45509;-69
2023/10/18 06:29:45;;;;;;;;;11.67;11.67;;;;;14.16;65.70;99638.47;5120957;27;45315;-72
2023/10/18 06:32:15;;;;;;;;;10.67;9.00;;;;;13.90;65.68;99596.34;5120617;27;45700;-74
2023/10/18 06:34:43;;;;;;;;;11.67;9.00;;;;;14.05;65.82;99610.44;5120510;27;45297;-72
2023/10/18 06:37:46;;;;;;;;;12.00;11.33;;;;;14.21;65.80;99615.47;5120588;27;45480;-73
2023/10/18 06:40:08;;;;;;;;;10.33;9.00;;;;;14.20;65.57;99608.50;5116189;27;45322;-71
2023/10/18 06:42:34;;;;;;;;;11.67;11.67;;;;;13.95;65.70;99567.19;5106328;27;47367;-72
2023/10/18 06:45:03;;;;;;;;;8.00;8.00;;;;;14.17;65.71;99595.50;5101343;27;45366;-73
2023/10/18 06:47:31;;;;;;;;;10.33;10.33;;;;;14.25;66.05;99598.06;5101634;27;45268;-72
2023/10/18 06:50:00;;;;;;;;;11.67;10.67;;;;;14.26;65.62;99598.88;5112498;27;45214;-82
2023/10/18 06:52:40;;;;;;;;;8.00;8.00;;;;;14.03;65.13;99548.34;5101133;27;45622;-72
2023/10/18 06:55:06;;;;;;;;;13.00;12.33;;;;;14.29;65.26;99598.50;5099901;27;45383;-72
2023/10/18 06:57:35;;;;;;;;;11.00;10.00;;;;;14.34;65.33;99596.03;5098802;27;45507;-73
2023/10/18 07:00:07;;;;;;;;;13.00;11.00;;;;;14.37;65.22;99600.16;5104969;27;45468;-70
2023/10/18 07:02:32;;;;;;;;;10.67;10.00;;;;;14.36;65.44;99587.81;5117827;27;46618;-73
2023/10/18 07:04:57;;;;;;;;;13.00;13.00;;;;;14.34;64.73;99568.47;5099630;27;45601;-72
2023/10/18 07:07:23;;;;;;;;;13.33;10.00;;;;;14.44;64.97;99563.66;5121037;27;45700;-72
2023/10/18 07:09:52;;;;;;;;;10.67;10.00;;;;;14.49;64.67;99566.53;5106213;27;45422;-72
2023/10/18 07:12:26;;;;;;;;;9.33;9.33;;;;;14.47;64.67;99552.56;5098261;27;46638;-72
2023/10/18 07:14:52;;;;;;;;;12.00;11.00;;;;;14.44;64.94;99537.72;5096769;27;45670;-72
2023/10/18 07:17:21;;;;;;;;;10.67;9.00;;;;;14.31;64.66;99527.75;5096603;27;45462;-71
2023/10/18 07:19:49;;;;;;;;;12.67;9.67;;;;;14.46;64.94;99558.94;5097428;27;45711;-73
2023/10/18 07:22:19;;;;;;;;;9.00;8.67;;;;;14.39;64.61;99555.34;5099310;27;46078;-70
2023/10/18 07:24:47;;;;;;;;;10.67;10.67;;;;;14.42;64.77;99571.84;5085657;27;45532;-86
2023/10/18 07:27:17;;;;;;;;;6.00;6.00;;;;;14.43;64.76;99581.53;5103182;27;45438;-71
2023/10/18 07:29:49;;;;;;;;;13.33;11.33;;;;;14.42;64.72;99582.53;5098279;27;45577;-72
2023/10/18 07:32:23;;;;;;;;;13.00;11.67;;;;;14.24;64.87;99531.41;5098422;27;46735;-71
2023/10/18 07:34:54;;;;;;;;;12.00;11.67;;;;;14.52;64.79;99560.78;5109216;27;45308;-71
2023/10/18 07:37:24;;;;;;;;;12.67;10.33;;;;;14.43;64.22;99532.56;5118528;27;45525;-72
2023/10/18 07:40:07;;;;;;;;;12.00;11.33;;;;;14.65;64.00;99549.34;5118971;27;45437;-72
2023/10/18 07:42:34;;;;;;;;;14.00;14.00;;;;;14.49;64.01;99521.91;5119347;27;46877;-72
2023/10/18 07:45:08;;;;;;;;;11.67;11.67;;;;;14.87;63.80;99565.06;5118502;27;45488;-72
2023/10/18 07:47:37;;;;;;;;;16.00;13.00;;;;;15.02;63.49;99561.41;5119586;27;45547;-73
2023/10/18 07:53:13;;;;;;;;;14.00;13.00;;;;;15.35;62.53;99545.41;5015167;28;47177;-72
2023/10/18 07:55:41;;;;;;;;;14.67;14.00;;;;;15.44;61.85;99534.31;5015098;28;45391;-73
2023/10/18 07:58:17;;;;;;;;;14.67;13.67;;;;;15.59;61.80;99514.53;5066023;27;45584;-72
2023/10/18 08:01:07;;;;;;;;;12.33;10.00;;;;;15.97;61.19;99523.59;5099448;27;45785;-73
2023/10/18 08:03:31;;;;;;;;;11.00;11.00;;;;;16.08;60.18;99522.97;5096677;27;45709;-72
2023/10/18 08:05:57;;;;;;;;;10.67;10.67;;;;;16.19;59.86;99513.44;5097732;27;45300;-72
2023/10/18 08:08:26;;;;;;;;;10.00;10.00;;;;;16.34;59.52;99505.16;5096965;27;45315;-70
2023/10/18 08:10:55;;;;;;;;;12.00;11.00;;;;;16.48;59.25;99503.25;5098086;27;45428;-73
2023/10/18 08:13:28;;;;;;;;;10.67;9.33;;;;;16.35;58.87;99488.84;5080220;27;47064;-71
2023/10/18 08:15:54;;;;;;;;;13.33;11.67;;;;;16.46;59.04;99521.41;5079253;27;45605;-72
2023/10/18 08:18:39;;;;;;;;;10.33;9.67;;;;;16.28;58.98;99444.31;5079799;27;45505;-72
2023/10/18 08:21:08;;;;;;;;;15.00;14.33;;;;;16.75;58.69;99487.88;5098253;27;45256;-73
2023/10/18 08:26:05;;;;;;;;;12.33;11.33;;;;;17.27;57.54;99487.56;5098071;27;45264;-72
2023/10/18 08:28:38;;;;;;;;;13.00;13.00;;;;;17.66;57.61;99496.34;5079825;27;45267;-73
2023/10/18 08:31:32;;;;;;;;;7.33;7.33;;;;;17.96;55.90;99484.91;5098912;27;45544;-73
2023/10/18 08:34:10;;;;;;;;;7.00;7.00;;;;;18.08;55.06;99491.19;5098514;27;46300;-72
2023/10/18 08:36:36;;;;;;;;;10.00;8.67;;;;;18.07;55.01;99479.63;5097993;27;45384;-74
2023/10/18 08:39:02;;;;;;;;;8.00;7.00;;;;;18.02;55.06;99451.72;5098426;27;45332;-73
2023/10/18 08:41:33;;;;;;;;;7.67;6.00;;;;;18.00;54.92;99464.59;5079487;27;45642;-72
2023/10/18 08:44:26;;;;;;;;;8.00;8.00;;;;;18.10;55.15;99491.81;5098530;27;45580;-73
2023/10/18 08:49:23;;;;;;;;;7.00;6.00;;;;;18.22;55.07;99476.56;5098605;27;45339;-72
2023/10/18 08:52:11;;;;;;;;;5.33;4.67;;;;;18.12;55.24;99452.06;5079419;27;45454;-71
2023/10/18 08:54:41;;;;;;;;;7.33;5.67;;;;;18.16;55.58;99464.00;5097627;27;46553;-71
2023/10/18 08:57:10;;;;;;;;;10.67;9.67;;;;;18.21;55.38;99461.44;5097421;27;45430;-73
2023/10/18 08:59:51;;;;;;;;;11.67;9.67;;;;;18.11;55.54;99439.66;5098051;27;45334;-72
2023/10/18 09:02:18;;;;;;;;;6.00;6.00;;;;;18.12;55.70;99458.25;5098766;27;45546;-73
2023/10/18 09:04:54;;;;;;;;;7.00;6.00;;;;;17.89;56.35;99432.03;5117133;27;46571;-73
2023/10/18 09:07:54;;;;;;;;;5.67;5.67;;;;;17.99;56.36;99446.81;5118476;27;45484;-73
2023/10/18 09:18:16;;;;;;;;;7.67;7.67;;;;;18.12;56.96;99452.06;5093905;27;45310;-74
2023/10/18 09:20:41;;;;;;;;;7.00;7.00;;;;;17.81;56.79;99386.59;5099719;27;45308;-71
2023/10/18 09:23:24;;;;;;;;;8.00;8.00;;;;;18.15;57.07;99443.53;5099306;27;45505;-71
2023/10/18 09:26:01;;;;;;;;;6.33;6.00;;;;;18.09;57.10;99429.13;5117564;27;46600;-76
2023/10/18 09:28:32;;;;;;;;;9.00;7.00;;;;;18.19;57.06;99450.09;5099079;27;45481;-72
2023/10/18 09:31:03;;;;;;;;;8.00;8.00;;;;;18.20;57.24;99447.19;5098065;27;45387;-72
2023/10/18 09:33:35;;;;;;;;;10.67;7.00;;;;;18.19;57.02;99428.56;5116878;27;45348;-73
2023/10/18 09:36:01;;;;;;;;;8.00;6.33;;;;;18.21;57.34;99440.75;5116608;27;46591;-73
2023/10/18 09:38:39;;;;;;;;;9.67;9.00;;;;;18.24;57.15;99444.88;5116480;27;45422;-72
2023/10/18 09:41:05;;;;;;;;;9.67;7.33;;;;;18.21;57.43;99440.75;5097778;27;45500;-73
2023/10/18 09:43:33;;;;;;;;;11.67;9.33;;;;;18.19;57.50;99432.09;5110598;27;45582;-73
2023/10/18 09:45:59;;;;;;;;;5.33;5.33;;;;;18.12;57.63;99420.59;5106101;27;47513;-73
2023/10/18 09:48:26;;;;;;;;;7.00;6.67;;;;;18.22;57.61;99436.22;5117609;27;45484;-73
2023/10/18 09:50:53;;;;;;;;;8.00;8.00;;;;;18.18;57.97;99427.75;5117805;27;45263;-72
2023/10/18 09:53:25;;;;;;;;;7.00;6.00;;;;;18.10;57.69;99420.00;5119788;27;45626;-73
2023/10/18 09:55:52;;;;;;;;;4.00;1.00;;;;;18.02;57.89;99401.50;5120926;27;45620;-72
2023/10/18 09:58:19;;;;;;;;;6.67;6.67;;;;;17.77;58.26;99363.09;5121376;27;45388;-72
2023/10/18 10:00:56;;;;;;;;;7.67;7.00;;;;;17.90;58.62;99377.19;5102849;27;45235;-73
2023/10/18 10:03:25;;;;;;;;;6.00;6.00;;;;;18.00;58.67;99405.41;5121534;27;45439;-71
2023/10/18 10:05:51;;;;;;;;;9.00;7.67;;;;;17.89;59.19;99391.69;5120468;27;46578;-76
2023/10/18 10:08:22;;;;;;;;;8.33;8.33;;;;;17.79;59.27;99375.25;5120790;27;45628;-74
2023/10/18 10:10:49;;;;;;;;;11.00;10.00;;;;;17.87;59.67;99390.28;5120996;27;45430;-74
2023/10/18 10:13:18;;;;;;;;;4.00;4.00;;;;;17.80;60.03;99374.19;5121253;27;45338;-73
2023/10/18 10:15:48;;;;;;;;;8.00;7.33;;;;;17.78;60.35;99381.69;5120297;27;46774;-72
2023/10/18 10:18:18;;;;;;;;;7.00;7.00;;;;;17.63;60.63;99365.91;5120901;27;45355;-73
2023/10/18 10:20:47;;;;;;;;;8.33;6.33;;;;;17.75;61.43;99390.19;5103173;27;45394;-73
2023/10/18 10:23:15;;;;;;;;;7.33;7.33;;;;;17.65;61.26;99363.00;5102452;27;45402;-71
2023/10/18 10:25:48;;;;;;;;;6.33;6.33;;;;;17.71;61.59;99351.38;5101862;27;48970;-72
2023/10/18 10:29:09;;;;;;;;;22.00;19.67;;;;;17.88;61.35;99375.78;5120689;27;45408;-74
2023/10/18 10:31:23;;;;;;;;;44.33;34.67;;;;;17.83;61.50;99346.91;5120465;27;45331;-72
2023/10/18 10:34:05;;;;;;;;;23.67;22.67;;;;;18.04;61.38;99356.38;5120733;27;45640;-73
2023/10/18 10:36:34;;;;;;;;;10.33;8.33;;;;;18.05;61.26;99349.94;5120371;27;45673;-73
2023/10/18 10:39:02;;;;;;;;;10.67;7.67;;;;;18.07;60.90;99347.00;5103231;27;45470;-72
2023/10/18 10:41:31;;;;;;;;;7.00;6.00;;;;;18.24;60.91;99354.22;5099489;27;45346;-72
2023/10/18 10:44:22;;;;;;;;;7.33;7.00;;;;;18.16;61.10;99335.69;5099995;27;45530;-73
2023/10/18 10:46:50;;;;;;;;;11.33;10.00;;;;;18.35;60.95;99360.69;5099437;27;45903;-71
2023/10/18 10:49:58;;;;;;;;;9.00;9.00;;;;;18.37;60.94;99349.69;5099545;27;45564;-73
2023/10/18 10:52:29;;;;;;;;;7.67;7.67;;;;;18.05;61.07;99292.63;5099738;27;45243;-72
2023/10/18 10:55:01;;;;;;;;;36.00;32.67;;;;;18.21;61.21;99319.69;5080908;27;45526;-73
2023/10/18 10:57:29;;;;;;;;;10.33;8.00;;;;;18.25;61.24;99336.22;5081044;27;47602;-72
2023/10/18 10:59:57;;;;;;;;;9.00;9.00;;;;;18.34;61.33;99342.09;5099011;27;45305;-71
2023/10/18 11:02:39;;;;;;;;;13.00;13.00;;;;;18.35;61.27;99333.78;5099392;27;45492;-71
2023/10/18 11:05:15;;;;;;;;;12.67;10.33;;;;;18.21;61.45;99314.31;5098007;27;45509;-71
2023/10/18 11:07:43;;;;;;;;;13.67;10.33;;;;;18.20;61.70;99295.72;5099022;27;46147;-72
2023/10/18 11:10:14;;;;;;;;;11.00;9.67;;;;;18.20;61.51;99301.09;5098696;27;45476;-72
2023/10/18 11:12:40;;;;;;;;;8.33;7.33;;;;;18.30;61.87;99314.00;5099373;27;45253;-72
2023/10/18 11:15:18;;;;;;;;;9.33;8.00;;;;;18.26;62.10;99308.28;5099440;27;45405;-72
2023/10/18 11:17:45;;;;;;;;;7.00;6.67;;;;;18.08;62.63;99274.16;5098842;27;47487;-73
2023/10/18 11:20:20;;;;;;;;;8.67;7.67;;;;;18.24;62.70;99296.91;5098971;27;45542;-73
2023/10/18 11:22:54;;;;;;;;;10.00;7.33;;;;;18.20;62.78;99282.25;5099162;27;45230;-72
2023/10/18 11:25:30;;;;;;;;;10.67;8.00;;;;;18.21;62.92;99281.22;5096814;27;45562;-72
2023/10/18 11:28:01;;;;;;;;;5.67;5.67;;;;;18.16;63.31;99268.47;5119289;27;46387;-72
2023/10/18 11:30:28;;;;;;;;;10.33;10.00;;;;;18.12;63.92;99258.38;5119482;27;45235;-72
2023/10/18 11:32:54;;;;;;;;;7.00;6.00;;;;;17.98;63.95;99232.72;5119749;27;45273;-70
2023/10/18 11:35:27;;;;;;;;;32.67;25.67;;;;;18.14;64.88;99264.34;5101177;27;45460;-72
2023/10/18 11:37:52;;;;;;;;;7.33;6.00;;;;;17.76;64.73;99190.22;5119285;27;46953;-72
2023/10/18 11:40:29;;;;;;;;;7.00;6.67;;;;;18.07;65.16;99239.44;5100540;27;45393;-72
2023/10/18 11:43:05;;;;;;;;;9.00;7.00;;;;;17.66;65.67;99160.38;5119605;27;45325;-72
2023/10/18 11:45:31;;;;;;;;;4.00;3.67;;;;;18.12;66.19;99234.19;5119916;27;45189;-72
2023/10/18 11:47:59;;;;;;;;;6.67;5.67;;;;;18.05;66.26;99220.03;5119431;27;46138;-72
2023/10/18 11:50:47;;;;;;;;;8.00;8.00;;;;;17.99;66.67;99202.91;5100526;27;45608;-74
2023/10/18 11:53:14;;;;;;;;;10.00;10.00;;;;;18.02;66.82;99198.94;5119243;27;45259;-73
2023/10/18 11:55:56;;;;;;;;;4.67;4.67;;;;;18.11;67.11;99211.03;5119471;27;45328;-77
2023/10/18 11:58:23;;;;;;;;;3.67;3.67;;;;;18.01;68.14;99192.75;5119113;27;47633;-72
2023/10/18 12:00:50;;;;;;;;;11.00;7.00;;;;;18.06;67.84;99203.66;5118841;27;45220;-73
2023/10/18 12:03:15;;;;;;;;;9.33;8.00;;;;;18.02;68.75;99201.63;5119341;27;45430;-75
2023/10/18 12:05:43;;;;;;;;;9.33;9.33;;;;;17.87;69.17;99172.50;5118852;27;45478;-75
2023/10/18 12:08:13;;;;;;;;;9.67;7.33;;;;;17.97;69.37;99188.88;5118964;27;45855;-72
2023/10/18 12:10:39;;;;;;;;;8.00;8.00;;;;;17.88;69.60;99177.66;5100540;27;45509;-73
2023/10/18 12:13:14;;;;;;;;;7.33;7.33;;;;;17.88;70.65;99183.03;5118955;27;45346;-75
2023/10/18 12:15:40;;;;;;;;;4.33;3.00;;;;;17.78;70.28;99166.63;5100298;27;45564;-73
2023/10/18 12:18:06;;;;;;;;;8.33;7.00;;;;;17.42;70.92;99096.81;5118731;27;46815;-74
2023/10/18 12:20:35;;;;;;;;;5.00;4.00;;;;;17.47;70.85;99105.84;5118969;27;45583;-72